FCC filing company

T-Mobile MW LLC

FRN 0036989010

12920 SE 38th Street, Bellevue, WA, 98006, US

Data coverage

FCC sourceMatched entitiesLast refreshed
ULS12026-08-31 21:01:04

Source records and provenance

Each row is an independently retained source identity connected to this company. FCC.report does not overwrite one source with another.

FCC sourceRecorded nameSource identityMatch basisLast refreshed
ULST-Mobile MW LLCfrn:0036989010exact frn2026-08-31 21:01:04

Universal Licensing System records

Grant dateCall signServiceStatusFrequencyLocationExpiration
2023-01-10WRVV517CFA11245 - 11405 MHz (2 frequencies)Woodstock, WINDHAM, CT (+1)2033-01-10
2023-01-10WRVV516CFA19540 - 19620 MHz (2 frequencies)Greeley, PIKE, PA (+1)2033-01-10
2023-01-10WRVV509CFA19540 - 19620 MHz (2 frequencies)Wisconsin Rapids, WOOD, WI (+1)2033-01-10
2023-01-10WRVV508CFA19380 MHzWisconsin Rapids, WOOD, WI (+1)2033-01-10
2023-01-10WRVV507CFA10835 MHzCECIL, SHAWANO, WI (+1)2033-01-10
2023-01-10WRVV505CFA11325 MHzKeshena, MENOMINEE, WI (+1)2033-01-10
2023-01-10WRVV503CFA10755 - 10915 MHz (2 frequencies)Eastford, WINDHAM, CT (+1)2033-01-10
2023-01-10WRVV501CFA11245 - 11405 MHz (2 frequencies)Ashford, WINDHAM, CT (+1)2033-01-10
2023-01-10WRVV499CFA10755 - 10915 MHz (2 frequencies)Winsted, LITCHFIELD, CT (+1)2033-01-10
2023-01-10WRVV498CFA10755 - 10915 MHz (2 frequencies)Hartford, TOLLAND, CT (+1)2033-01-10
2023-01-10WRVV496CFA11245 - 11405 MHz (2 frequencies)Winsted, LITCHFIELD, CT (+1)2033-01-10
2023-01-10WRVV495CFA11565 MHzSHOHOLA, PIKE, PA (+1)2033-01-10
2023-01-10WRVV488CFA19540 MHzVan Alstyne, GRAYSON, TX (+1)2033-01-10
2023-01-10WRVV487CFA19460 - 19540 MHz (2 frequencies)Royse City, HUNT, TX (+1)2033-01-10
2023-01-10WRVV486CFA10755 MHzTemple, BELL, TX (+1)2033-01-10
2023-01-10WRVV483CFA10755 MHz29.6706944, -97.36341672033-01-10
2023-01-10WRVV481CFA17900 - 17980 MHz (2 frequencies)Quinlan, HUNT, TX (+1)2033-01-10
2023-01-10WRVV477CFA10915 MHzWHALEYVILLE, WORCESTER, MD (+1)2033-01-10
2023-01-10WRVV476CFA11245 - 11405 MHz (2 frequencies)Willards, WICOMICO, MD (+1)2033-01-10
2023-01-10WRVV475CFA10915 MHzGlenelg, HOWARD, MD (+1)2033-01-10
2023-01-10WRVV474CFA11405 - 11485 MHz (2 frequencies)ELLICOTT CITY, HOWARD, MD (+1)2033-01-10
2023-01-10WRVV473CFA11385 - 11465 MHz (2 frequencies)Whitneyville, TIOGA, PA (+1)2033-01-10
2023-01-10WQQP673CFA6389.965 - 10995 MHz (2 frequencies)33.9419444, -94.92305562033-02-08
2023-01-10WQQE915CFC17815 - 18015 MHz (4 frequencies)Brownsville, LINN, OR (+1)2032-11-21
2023-01-10WQQE894CFC10795 - 19575 MHz (5 frequencies)44.2334722, -123.20966672032-11-21
2023-01-10WPWZ293CFA6226.89 - 6555 MHz (2 frequencies)41.2452500, -95.69258332033-02-13
2023-01-10WPWY546CFA6725 MHzSUSANVILLE, LASSEN, CA (+1)2033-02-10
2023-01-09WRVU833CFA21825 - 21875 MHz (2 frequencies)Waterford, LOUDOUN, VA (+1)2033-01-09
2023-01-09WRVU828CFA22125 - 22275 MHz (4 frequencies)Savage-Guilford, HOWARD, MD (+1)2033-01-09
2023-01-09WRVU814CFA23325 - 23475 MHz (4 frequencies)Jessup, HOWARD, MD (+1)2033-01-09
2023-01-06WRVU535CFA11325 MHzPut-in-Bay, OTTAWA, OH (+1)2033-01-06
2023-01-05WRVU281CFA11245 - 11645 MHz (4 frequencies)46.3611111, -84.41583332033-01-05
2023-01-04WRVT839CFA6330.665 MHzIDA, MONROE, MI (+1)2033-01-04
2023-01-04WRVT828CFA19540 - 19620 MHz (2 frequencies)41.7736389, -83.62288892033-01-04
2023-01-04WRVT826CFA17980 - 18060 MHz (2 frequencies)Petersburg, MONROE, MI (+1)2033-01-04
2023-01-04WRVT757CFA11245 - 11405 MHz (2 frequencies)44.4979444, -85.95561112033-01-04
2023-01-04WRVT693CFA11075 - 11155 MHz (2 frequencies)Cookeville, PUTNAM, TN (+1)2033-01-04
2023-01-04WRVT691CFA17900 MHzHolt, SAN JOAQUIN, CA (+1)2033-01-04
2023-01-04WRVT688CFA10915 - 10995 MHz (2 frequencies)Prudenville, ROSCOMMON, MI (+1)2033-01-04
2023-01-04WRVT686CFA11245 - 11405 MHz (2 frequencies)38.1792500, -90.82555562033-01-04
2023-01-04WRVT685CFA10755 - 10915 MHz (2 frequencies)Steelville, CRAWFORD, MO (+1)2033-01-04
2023-01-04WRVT682CFA10995 - 11075 MHz (2 frequencies)Poulsbo, KITSAP, WA (+1)2033-01-04
2023-01-04WRVT666CFA17765 MHz33.9085278, -112.14736112033-01-04
2023-01-04WRVT664CFA19540 - 19620 MHz (2 frequencies)BEAR LAKE, MANISTEE, MI (+1)2033-01-04
2023-01-04WRVT662CFA10915 - 10995 MHz (2 frequencies)MOORSEVILLE, MORGAN, IN (+1)2033-01-04
2023-01-04WRVT659CFA11425 MHzTerre Haute, SULLIVAN, IN (+1)2033-01-04
2023-01-04WRVT637CFA10835 MHzZILLAH, YAKIMA, WA (+1)2033-01-04
2023-01-04WQQD955CFA19375 - 19675 MHz (4 frequencies)37.8817222, -121.91911112032-11-14
2023-01-04WQQD941CFA11245 - 11405 MHz (2 frequencies)Centre, CHEROKEE, AL (+2)2032-11-14
2023-01-04WQQD940CFA10835 - 10915 MHz (2 frequencies)Cedar Bluff, CHEROKEE, AL (+1)2032-11-14
2023-01-04WQQD350CFA23075 - 23175 MHz (2 frequencies)39.0598056, -77.5623056 (+1)2032-11-06
2023-01-04WQQD222CFC23075 MHz38.9162778, -77.05680562032-11-05
2023-01-04WQQD221CFC22075 MHz38.9165556, -77.04822222032-11-05
2023-01-04WQQC994CFA21825 MHz38.8341389, -77.17327782032-11-05
2023-01-04WPWX461CFA6389.965 MHzTOMAH, MONROE, WI (+1)2033-02-04
2023-01-04WPWX460CFA6034.15 - 6137.925 MHz (2 frequencies)Tomah, MONROE, WI (+2)2033-02-04
2023-01-04WPWX458CFA6271.365 MHz44.0334444, -90.35875002033-02-04
2023-01-04WPWX454CFA10628.125 MHzGrants Pass, JOSEPHINE, OR (+1)2033-02-04
2023-01-04WPWW975CFA6345.49 MHz34.2547222, -78.03250002033-02-03
2023-01-04WPWH265CFC19375 MHz34.2347778, -117.14047222032-11-15
2023-01-03WRVS832CFA11245 - 11325 MHz (2 frequencies)TAYLORVILLE, CHRISTIAN, IL (+2)2033-01-03
2023-01-03WRVS817CFA10835 MHzREEDS, JASPER, MO (+1)2033-01-03
2023-01-03WQQE838CFC17965 - 23075 MHz (2 frequencies)42.4088889, -122.94488892032-11-20
2022-12-29WRVS324CFA17980 - 18060 MHz (2 frequencies)Chatham, LICKING, OH (+1)2032-12-29
2022-12-29WRVS315CFA23025 - 23125 MHz (2 frequencies)Yuma, YUMA, AZ (+1)2032-12-29
2022-12-28WRVR913CFA11405 - 11485 MHz (2 frequencies)ROSCOMMON, ROSCOMMON, MI (+1)2032-12-28
2022-12-28WRVR912CFA17820 - 17900 MHz (2 frequencies)39.7251111, -86.08338892032-12-28
2022-12-28WRVR910CFA10995 MHzAvilla, NOBLE, IN (+2)2032-12-28
2022-12-28WRVR908CFA11565 - 11645 MHz (2 frequencies)ASHTON, LEE, IL (+1)2032-12-28
2022-12-28WRVR907CFA11485 MHzRoscommon, ROSCOMMON, MI (+1)2032-12-28
2022-12-28WRVR906CFA10915 - 10995 MHz (2 frequencies)ST. HELEN, ROSCOMMON, MI (+1)2032-12-28
2022-12-28WRVR905CFA11565 MHz40.8722500, -86.74525002032-12-28
2022-12-28WRVR904CFA11405 - 11485 MHz (2 frequencies)BARGERSVILLE, JOHNSON, IN (+1)2032-12-28
2022-12-28WRVR902CFA17980 - 18060 MHz (2 frequencies)Bear Lake, MANISTEE, MI (+1)2032-12-28
2022-12-28WRVR901CFA6330.665 MHzCope, WASHINGTON, CO (+1)2032-12-28
2022-12-28WRVR898CFA10835 - 10915 MHz (2 frequencies)RAVENNA, BUFFALO, NE (+1)2032-12-28
2022-12-28WRVR895CFA17820 - 17900 MHz (2 frequencies)43.5709167, -86.02222222032-12-28
2022-12-28WRVR894CFA19380 - 19460 MHz (2 frequencies)Indianapolis city (b, MARION, IN (+1)2032-12-28
2022-12-28WRVR893CFA6078.625 MHzLA SALLE, MONROE, MI (+1)2032-12-28
2022-12-28WRVR892CFA10755 MHz42.5952500, -84.41550002032-12-28
2022-12-28WRVR891CFA10755 - 11645 MHz (4 frequencies)Kendallville, NOBLE, IN (+1)2032-12-28
2022-12-28WRVR887CFA11405 - 11485 MHz (2 frequencies)AUBURN, DE KALB, IN (+1)2032-12-28
2022-12-28WRVR886CFA11565 MHzGladwin, GLADWIN, MI (+1)2032-12-28
2022-12-28WRVR885CFA17980 - 18060 MHz (2 frequencies)GRAND LEDGE, CLINTON, MI (+1)2032-12-28
2022-12-28WRVR882CFA17980 - 18060 MHz (2 frequencies)Lima, ALLEN, OH (+1)2032-12-28
2022-12-28WRVR881CFA17980 - 18060 MHz (2 frequencies)Defiance, DEFIANCE, OH (+1)2032-12-28
2022-12-28WRVR880CFA11155 MHzParis, MECOSTA, MI (+1)2032-12-28
2022-12-28WRVR877CFA11245 MHzMason, INGHAM, MI (+1)2032-12-28
2022-12-28WRVR876CFA17820 - 17900 MHz (2 frequencies)INDIANAPOLIS, MARION, IN (+1)2032-12-28
2022-12-28WRVR874CFA19540 MHzDewitt, CLINTON, MI (+1)2032-12-28
2022-12-28WRVR873CFA11245 - 11325 MHz (2 frequencies)Five Points, SHIAWASSEE, MI (+1)2032-12-28
2022-12-28WRVR869CFA10755 MHzCHESANING, SAGINAW, MI (+1)2032-12-28
2022-12-28WRVR868CFA19540 - 19620 MHz (2 frequencies)Schoolcraft, KALAMAZOO, MI (+1)2032-12-28
2022-12-28WRVR867CFA10915 MHzGENEVA, ADAMS, IN (+1)2032-12-28
2022-12-28WRVR866CFA11645 MHz43.7461944, -85.52755562032-12-28
2022-12-28WRVR865CFA17980 - 18060 MHz (2 frequencies)Norton Shores, MUSKEGON, MI (+2)2032-12-28
2022-12-28WRVR864CFA19540 MHzNORTON SHORES, MUSKEGON, MI (+1)2032-12-28
2022-12-28WRVR863CFA11405 MHzSouth Bluffton, WELLS, IN (+1)2032-12-28
2022-12-28WRVR862CFA17980 - 18060 MHz (2 frequencies)RUSK, OTTAWA, MI (+1)2032-12-28
2022-12-28WRVR861CFA17980 MHzSchoolcraft, KALAMAZOO, MI (+1)2032-12-28

IBFS / ICFS filings

No filings are available yet.

Experimental filings

No filings are available yet.

FCC ID filings

No matched FCC ID filings are available.

Antenna Structure Registration records

No matched antenna structure registrations are available.

Licensing and Management System filings

No matched LMS filings are available.

Public Inspection File facilities

No matched Public Inspection File facilities are available.

Historical CDBS broadcast filings

No matched historical CDBS filings are available.

FCC auction participation

No matched FCC auction bidder records are available.

Robocall Mitigation Database filings

No matched Robocall Mitigation Database filings are available.

Broadband Data Collection providers

No matched BDC provider identifiers are available.

Intermediate Provider Registry

No matched Intermediate Provider Registry entries are available.